createdAt,value
2018-11-22T12:17:23.734Z,8.77
2018-11-22T12:22:27.055Z,8.70
2018-11-22T12:27:30.410Z,7.90
2018-11-22T12:32:35.055Z,8.33
2018-11-22T12:37:43.385Z,9.03
2018-11-22T12:42:43.435Z,7.57
2018-11-22T12:47:46.759Z,8.93
2018-11-22T12:52:50.036Z,7.70
2018-11-22T12:57:53.354Z,8.23
2018-11-22T13:02:56.638Z,8.17
2018-11-22T13:07:59.955Z,8.03
2018-11-22T13:13:03.239Z,7.40
2018-11-22T13:18:06.546Z,7.70
2018-11-22T13:23:09.855Z,7.20
2018-11-22T13:28:13.143Z,7.60
2018-11-22T13:33:16.428Z,7.60
2018-11-22T13:38:19.707Z,7.50
2018-11-22T13:43:22.991Z,7.83
2018-11-22T13:48:26.271Z,7.33
2018-11-22T13:53:29.670Z,7.58
2018-11-22T13:58:32.955Z,7.33
2018-11-22T14:03:36.242Z,7.10
2018-11-22T14:08:39.527Z,6.83
2018-11-22T14:13:42.803Z,7.08
2018-11-22T14:18:46.082Z,6.83
2018-11-22T14:23:49.370Z,7.70
2018-11-22T14:28:52.655Z,7.20
2018-11-22T14:33:55.931Z,6.43
2018-11-22T14:39:00.119Z,7.40
2018-11-22T14:44:03.435Z,7.63
2018-11-22T14:49:07.072Z,7.40
2018-11-22T14:54:10.355Z,7.07
2018-11-22T14:59:13.715Z,6.77
2018-11-22T15:04:16.987Z,6.80
2018-11-22T15:09:20.267Z,8.23
2018-11-22T15:14:23.587Z,7.00
2018-11-22T15:19:26.878Z,6.53
2018-11-22T15:24:30.231Z,6.67
2018-11-22T15:29:33.543Z,6.83
2018-11-22T15:34:36.831Z,6.97
2018-11-22T15:39:40.113Z,6.23
2018-11-22T15:44:43.437Z,7.07
2018-11-22T15:49:46.742Z,6.73
2018-11-22T15:54:50.024Z,7.40
2018-11-22T15:59:53.324Z,6.00
2018-11-22T16:04:56.618Z,6.67
2018-11-22T16:09:59.920Z,5.72
2018-11-22T16:15:03.303Z,6.27
2018-11-22T16:20:07.719Z,6.00
2018-11-22T16:25:12.244Z,5.83
2018-11-22T16:30:17.101Z,6.20
2018-11-22T16:35:21.231Z,5.93
2018-11-22T16:45:30.219Z,6.15
2018-11-22T16:50:34.548Z,5.90
2018-11-22T16:55:37.848Z,5.30
2018-11-22T17:00:41.440Z,6.03
2018-11-22T17:05:45.065Z,5.67
2018-11-22T17:10:48.365Z,5.47
2018-11-22T17:15:51.660Z,5.62
2018-11-22T17:20:55.048Z,5.85
2018-11-22T17:25:58.327Z,5.33
2018-11-22T17:31:01.616Z,5.40
2018-11-22T17:36:05.296Z,5.80
2018-11-22T17:41:08.577Z,5.97
2018-11-22T17:46:12.203Z,6.00
2018-11-22T17:51:15.492Z,5.63
2018-11-22T17:56:18.807Z,7.20
2018-11-22T18:01:22.091Z,8.23
2018-11-22T18:06:25.375Z,8.47
2018-11-22T18:11:28.679Z,8.27
2018-11-22T18:16:31.963Z,8.88
2018-11-22T18:21:35.281Z,8.23
2018-11-22T18:26:38.567Z,7.28
2018-11-22T18:31:41.851Z,8.00
2018-11-22T18:36:45.228Z,7.73
2018-11-22T18:41:48.692Z,6.62
2018-11-22T18:46:52.357Z,7.10
2018-11-22T18:51:55.638Z,6.63
2018-11-22T18:56:58.923Z,6.03
2018-11-22T19:02:02.272Z,6.60
2018-11-22T19:07:06.368Z,6.40
2018-11-22T19:12:09.656Z,6.43
2018-11-22T19:17:13.016Z,6.40
2018-11-22T19:22:16.345Z,6.40
2018-11-22T19:27:19.651Z,6.60
2018-11-22T19:32:22.940Z,6.50
2018-11-22T19:37:26.496Z,6.80
2018-11-22T19:42:29.775Z,6.67
2018-11-22T19:47:33.115Z,6.63
2018-11-22T19:52:36.963Z,6.17
2018-11-22T19:57:40.419Z,6.47
2018-11-22T20:02:44.444Z,6.33
2018-11-22T20:07:49.340Z,6.10
2018-11-22T20:12:52.696Z,5.65
2018-11-22T20:17:56.427Z,5.90
2018-11-22T20:22:59.779Z,5.40
2018-11-22T20:28:03.424Z,6.00
2018-11-22T20:33:06.846Z,6.20
2018-11-22T20:38:10.184Z,6.57
2018-11-22T20:43:13.495Z,5.73
2018-11-22T20:48:16.827Z,5.60
2018-11-22T20:53:20.124Z,6.40
2018-11-22T20:58:23.457Z,5.07
2018-11-22T21:03:26.805Z,5.77
2018-11-22T21:08:30.229Z,6.03
2018-11-22T21:13:33.564Z,5.28
2018-11-22T21:18:36.904Z,6.17
2018-11-22T21:23:40.269Z,5.93
2018-11-22T21:28:43.680Z,5.75
2018-11-22T21:33:47.032Z,5.03
2018-11-22T21:38:50.346Z,5.50
2018-11-22T21:43:53.686Z,5.20
2018-11-22T21:48:57.188Z,5.27
2018-11-22T21:54:01.020Z,5.90
2018-11-22T21:59:04.762Z,5.33
2018-11-22T22:04:08.144Z,4.93
2018-11-22T22:09:11.528Z,4.80
2018-11-22T22:14:14.883Z,5.30
2018-11-22T22:19:18.235Z,5.60
2018-11-22T22:24:21.668Z,5.28
2018-11-22T22:29:24.971Z,4.80
2018-11-22T22:34:28.295Z,5.13
2018-11-22T22:39:31.598Z,5.13
2018-11-22T22:44:35.094Z,4.93
2018-11-22T22:49:38.392Z,5.15
2018-11-22T22:54:41.735Z,4.87
2018-11-22T22:59:45.043Z,4.92
2018-11-22T23:04:48.384Z,4.80
2018-11-22T23:09:51.724Z,4.67
2018-11-22T23:14:55.041Z,4.57
2018-11-22T23:19:58.357Z,5.37
2018-11-22T23:25:01.680Z,4.97
2018-11-22T23:30:09.585Z,4.90
2018-11-22T23:35:12.899Z,4.60
2018-11-22T23:40:17.387Z,5.00
2018-11-22T23:45:21.912Z,4.85
2018-11-22T23:50:27.469Z,4.37
2018-11-22T23:55:30.776Z,4.93
